createdAt,value
2018-06-09T00:01:15.722Z,7.33
2018-06-09T00:03:44.451Z,6.07
2018-06-09T00:06:13.507Z,5.20
2018-06-09T00:08:42.235Z,10.50
2018-06-09T00:11:11.375Z,11.20
2018-06-09T00:13:40.495Z,9.93
2018-06-09T00:16:09.227Z,6.67
2018-06-09T00:18:37.992Z,6.87
2018-06-09T00:21:07.094Z,6.70
2018-06-09T00:23:36.162Z,5.17
2018-06-09T00:26:04.902Z,6.87
2018-06-09T00:28:33.943Z,8.60
2018-06-09T00:31:02.680Z,7.50
2018-06-09T00:33:31.265Z,9.43
2018-06-09T00:36:00.372Z,7.73
2018-06-09T00:38:29.105Z,11.07
2018-06-09T00:40:57.822Z,9.30
2018-06-09T00:43:26.888Z,8.73
2018-06-09T00:45:55.662Z,5.87
2018-06-09T00:48:24.466Z,7.70
2018-06-09T00:50:53.832Z,6.03
2018-06-09T00:53:22.556Z,7.80
2018-06-09T00:56:01.895Z,7.93
2018-06-09T00:58:30.924Z,8.03
2018-06-09T01:00:59.748Z,6.97
2018-06-09T01:03:28.768Z,11.70
2018-06-09T01:05:57.531Z,7.37
2018-06-09T01:08:26.313Z,10.20
2018-06-09T01:10:55.452Z,7.93
2018-06-09T01:13:27.682Z,9.83
2018-06-09T01:15:57.060Z,9.70
2018-06-09T01:18:25.784Z,11.37
2018-06-09T01:20:54.552Z,8.17
2018-06-09T01:23:23.699Z,8.93
2018-06-09T01:25:52.435Z,9.37
2018-06-09T01:28:21.009Z,6.97
2018-06-09T01:30:50.036Z,9.90
2018-06-09T01:33:18.765Z,9.00
2018-06-09T01:35:47.551Z,9.37
2018-06-09T01:38:16.643Z,8.40
2018-06-09T01:40:45.714Z,9.57
2018-06-09T01:43:14.452Z,8.43
2018-06-09T01:45:43.523Z,8.63
2018-06-09T01:48:12.146Z,10.57
2018-06-09T01:50:40.722Z,10.57
2018-06-09T01:53:09.797Z,9.10
2018-06-09T01:55:38.564Z,8.57
2018-06-09T01:58:07.291Z,10.37
2018-06-09T02:00:36.470Z,9.87
2018-06-09T02:03:05.302Z,8.40
2018-06-09T02:05:34.196Z,8.10
2018-06-09T02:08:03.142Z,8.37
2018-06-09T02:10:31.884Z,8.67
2018-06-09T02:13:00.681Z,11.03
2018-06-09T02:15:29.824Z,11.00
2018-06-09T02:17:58.580Z,11.07
2018-06-09T02:20:27.319Z,8.27
2018-06-09T02:22:56.500Z,10.70
2018-06-09T02:25:25.135Z,10.77
2018-06-09T02:27:53.705Z,12.47
2018-06-09T02:30:22.656Z,10.07
2018-06-09T02:32:51.399Z,12.23
2018-06-09T02:35:19.971Z,14.83
2018-06-09T02:37:49.439Z,11.30
2018-06-09T02:40:18.171Z,10.60
2018-06-09T02:42:47.086Z,10.80
2018-06-09T02:45:22.359Z,10.73
2018-06-09T02:47:51.006Z,14.33
2018-06-09T02:50:19.744Z,13.67
2018-06-09T02:52:48.831Z,10.07
2018-06-09T02:55:17.576Z,13.77
2018-06-09T02:57:46.316Z,13.83
2018-06-09T03:00:15.390Z,12.47
2018-06-09T03:02:44.387Z,9.80
2018-06-09T03:05:13.194Z,10.97
2018-06-09T03:07:42.300Z,8.83
2018-06-09T03:10:11.042Z,13.97
2018-06-09T03:12:39.833Z,9.67
2018-06-09T03:15:08.768Z,10.83
2018-06-09T03:17:37.534Z,11.63
2018-06-09T03:20:06.288Z,10.53
2018-06-09T03:22:35.309Z,10.40
2018-06-09T03:25:04.179Z,9.50
2018-06-09T03:27:33.355Z,12.50
2018-06-09T03:30:02.129Z,14.57
2018-06-09T03:32:30.865Z,12.67
2018-06-09T03:34:59.995Z,10.60
2018-06-09T03:37:28.820Z,9.57
2018-06-09T03:39:57.599Z,11.27
2018-06-09T03:42:26.680Z,15.07
2018-06-09T03:44:55.749Z,11.90
2018-06-09T03:47:24.490Z,11.90
2018-06-09T03:49:53.654Z,10.07
2018-06-09T03:52:22.544Z,10.77
2018-06-09T03:54:51.287Z,11.07
2018-06-09T03:57:20.599Z,10.53
2018-06-09T03:59:49.337Z,12.07
2018-06-09T04:02:18.114Z,11.33
2018-06-09T04:04:47.214Z,11.17
2018-06-09T04:07:15.940Z,12.10
2018-06-09T04:09:44.521Z,13.47
2018-06-09T04:12:14.408Z,9.73
2018-06-09T04:14:43.023Z,13.67
2018-06-09T04:17:11.598Z,11.67
2018-06-09T04:19:40.972Z,14.73
2018-06-09T04:22:10.007Z,13.00
2018-06-09T04:24:38.755Z,9.23
2018-06-09T04:27:07.853Z,10.13
2018-06-09T04:29:36.827Z,10.73
2018-06-09T04:32:05.671Z,9.93
2018-06-09T04:34:34.639Z,9.97
2018-06-09T04:37:03.368Z,11.60
2018-06-09T04:39:32.159Z,9.77
2018-06-09T04:42:01.111Z,10.23
2018-06-09T04:44:29.849Z,9.20
2018-06-09T04:46:59.300Z,11.40
2018-06-09T04:49:28.027Z,9.37
2018-06-09T04:51:56.838Z,12.63
2018-06-09T04:54:25.943Z,10.80
2018-06-09T04:56:54.686Z,9.70
2018-06-09T04:59:23.448Z,10.27
2018-06-09T05:01:52.444Z,9.67
2018-06-09T05:04:21.503Z,8.40
2018-06-09T05:06:50.540Z,9.43
2018-06-09T05:09:19.635Z,9.13
2018-06-09T05:11:48.619Z,12.00
2018-06-09T05:14:17.368Z,9.33
2018-06-09T05:16:46.515Z,9.37
2018-06-09T05:19:15.244Z,9.40
2018-06-09T05:21:44.038Z,10.67
2018-06-09T05:24:13.230Z,10.57
2018-06-09T05:26:41.963Z,12.20
2018-06-09T05:29:10.779Z,10.03
2018-06-09T05:31:39.872Z,10.53
2018-06-09T05:34:08.627Z,10.67
2018-06-09T05:36:37.382Z,10.67
2018-06-09T05:39:08.422Z,11.57
2018-06-09T05:41:37.328Z,12.73
2018-06-09T05:44:05.912Z,11.87
2018-06-09T05:46:34.858Z,10.00
2018-06-09T05:49:03.615Z,10.60
2018-06-09T05:51:32.371Z,11.60
2018-06-09T05:54:01.371Z,10.80
2018-06-09T05:56:30.198Z,10.33
2018-06-09T05:58:58.928Z,9.77
2018-06-09T06:01:28.239Z,10.17
2018-06-09T06:03:57.275Z,8.33
2018-06-09T06:06:26.092Z,8.10
2018-06-09T06:08:55.196Z,8.20
2018-06-09T06:11:23.954Z,10.73
2018-06-09T06:13:52.700Z,10.43
2018-06-09T06:16:22.075Z,11.47
2018-06-09T06:18:50.757Z,9.70
2018-06-09T06:21:19.478Z,7.43
2018-06-09T06:23:48.556Z,11.07
2018-06-09T06:26:17.426Z,8.50
2018-06-09T06:28:46.183Z,6.57
2018-06-09T06:31:15.423Z,9.23
2018-06-09T06:33:44.188Z,8.23
2018-06-09T06:36:12.943Z,9.57
2018-06-09T06:38:41.817Z,8.43
2018-06-09T06:41:10.559Z,8.30
2018-06-09T06:43:39.458Z,7.57
2018-06-09T06:46:08.902Z,11.17
2018-06-09T06:48:37.779Z,8.57
2018-06-09T06:51:06.566Z,10.53
2018-06-09T06:53:35.766Z,9.70
2018-06-09T06:56:04.770Z,8.73
2018-06-09T06:58:33.794Z,8.43
2018-06-09T07:01:02.711Z,8.13
2018-06-09T07:03:31.877Z,8.20
2018-06-09T07:06:01.388Z,9.27
2018-06-09T07:08:31.204Z,10.67
2018-06-09T07:11:00.924Z,10.20
2018-06-09T07:13:34.995Z,8.57
2018-06-09T07:16:06.866Z,8.13
2018-06-09T07:18:36.597Z,9.23
2018-06-09T07:21:06.082Z,9.53
2018-06-09T07:23:35.411Z,11.03
2018-06-09T07:26:04.930Z,11.67
2018-06-09T07:28:33.704Z,8.40
2018-06-09T07:31:02.528Z,10.97
2018-06-09T07:33:31.656Z,10.77
2018-06-09T07:36:00.414Z,12.20
2018-06-09T07:38:29.180Z,9.60
2018-06-09T07:40:58.344Z,9.13
2018-06-09T07:43:27.422Z,12.17
2018-06-09T07:45:56.165Z,10.43
2018-06-09T07:48:25.479Z,8.37
2018-06-09T07:50:54.210Z,11.30
2018-06-09T07:53:22.942Z,8.93
2018-06-09T07:55:52.099Z,11.93
2018-06-09T07:58:20.858Z,8.60
2018-06-09T08:00:50.055Z,9.00
2018-06-09T08:03:18.932Z,9.67
2018-06-09T08:05:48.072Z,10.57
2018-06-09T08:08:17.082Z,9.13
2018-06-09T08:10:46.115Z,12.10
2018-06-09T08:13:14.742Z,9.97
2018-06-09T08:15:44.484Z,8.97
2018-06-09T08:18:13.099Z,12.33
2018-06-09T08:20:41.936Z,12.20
2018-06-09T08:23:11.280Z,8.73
2018-06-09T08:25:39.906Z,8.57
2018-06-09T08:28:08.798Z,10.77
2018-06-09T08:30:38.020Z,7.70
2018-06-09T08:33:06.844Z,11.17
2018-06-09T08:35:35.672Z,8.77
2018-06-09T08:38:04.795Z,8.90
2018-06-09T08:40:33.564Z,8.83
2018-06-09T08:43:02.242Z,7.53
2018-06-09T08:45:34.478Z,9.27
2018-06-09T08:48:03.227Z,8.07
2018-06-09T08:50:32.434Z,7.70
2018-06-09T08:53:01.491Z,7.77
2018-06-09T08:55:30.289Z,10.80
2018-06-09T08:57:59.200Z,10.03
2018-06-09T09:00:28.287Z,11.53
2018-06-09T09:02:57.043Z,10.93
2018-06-09T09:05:25.832Z,9.23
2018-06-09T09:07:54.991Z,8.43
2018-06-09T09:10:23.828Z,11.60
2018-06-09T09:12:52.608Z,10.27
2018-06-09T09:15:21.760Z,12.07
2018-06-09T09:17:50.540Z,15.57
2018-06-09T09:20:19.178Z,10.63
2018-06-09T09:22:48.316Z,9.17
2018-06-09T09:25:17.073Z,10.70
2018-06-09T09:27:45.831Z,10.17
2018-06-09T09:30:15.171Z,10.93
2018-06-09T09:32:43.968Z,10.00
2018-06-09T09:35:13.064Z,11.57
2018-06-09T09:37:42.544Z,11.50
2018-06-09T09:40:11.323Z,10.90
2018-06-09T09:42:40.428Z,10.83
2018-06-09T09:45:15.839Z,10.80
2018-06-09T09:47:44.656Z,9.23
2018-06-09T09:50:13.441Z,8.90
2018-06-09T09:52:42.522Z,8.40
2018-06-09T09:55:11.306Z,9.67
2018-06-09T09:57:57.608Z,9.63
2018-06-09T10:00:32.059Z,10.27
2018-06-09T10:03:01.103Z,6.40
2018-06-09T10:05:29.895Z,8.03
2018-06-09T10:07:58.885Z,8.07
2018-06-09T10:10:28.068Z,7.77
2018-06-09T10:12:56.855Z,11.33
2018-06-09T10:15:25.650Z,7.30
2018-06-09T10:17:54.884Z,8.67
2018-06-09T10:20:23.642Z,8.93
2018-06-09T10:22:52.428Z,7.67
2018-06-09T10:25:21.563Z,8.33
2018-06-09T10:27:50.336Z,6.93
2018-06-09T10:30:19.161Z,7.73
2018-06-09T10:32:48.252Z,6.50
2018-06-09T10:35:17.071Z,8.60
2018-06-09T10:37:45.712Z,9.30
2018-06-09T10:40:14.808Z,10.33
2018-06-09T10:42:43.563Z,10.57
2018-06-09T10:45:18.377Z,6.57
2018-06-09T10:47:47.184Z,6.93
2018-06-09T10:50:15.928Z,5.50
2018-06-09T10:52:44.980Z,8.37
2018-06-09T10:55:13.714Z,6.77
2018-06-09T10:57:42.848Z,9.33
2018-06-09T11:00:11.976Z,7.83
2018-06-09T11:02:40.715Z,5.13
2018-06-09T11:05:09.292Z,8.47
2018-06-09T11:07:38.559Z,4.67
2018-06-09T11:10:07.384Z,6.70
2018-06-09T11:12:36.163Z,6.90
2018-06-09T11:15:05.345Z,7.10
2018-06-09T11:17:34.096Z,6.63
2018-06-09T11:20:02.905Z,9.20
2018-06-09T11:22:31.978Z,6.37
2018-06-09T11:25:00.866Z,5.50
2018-06-09T11:27:29.624Z,5.70
2018-06-09T11:29:58.695Z,8.33
2018-06-09T11:32:27.439Z,5.87
2018-06-09T11:34:56.190Z,6.17
2018-06-09T11:37:25.302Z,4.20
2018-06-09T11:39:54.418Z,5.17
2018-06-09T11:42:23.170Z,6.30
2018-06-09T11:44:52.251Z,5.07
2018-06-09T11:47:20.980Z,5.47
2018-06-09T11:49:49.776Z,4.17
2018-06-09T11:52:19.179Z,4.77
2018-06-09T11:54:47.762Z,4.47
2018-06-09T11:57:16.341Z,5.87
2018-06-09T11:59:45.498Z,4.10
2018-06-09T12:02:14.282Z,3.07
2018-06-09T12:04:43.020Z,6.80
2018-06-09T12:07:11.867Z,4.17
2018-06-09T12:09:40.604Z,5.13
2018-06-09T12:12:09.168Z,3.90
2018-06-09T12:14:38.542Z,3.87
2018-06-09T12:17:07.303Z,4.93
2018-06-09T12:19:36.119Z,3.20
2018-06-09T12:22:05.327Z,7.23
2018-06-09T12:24:34.136Z,3.57
2018-06-09T12:27:02.952Z,5.13
2018-06-09T12:29:31.853Z,4.50
2018-06-09T12:32:00.579Z,4.43
2018-06-09T12:34:29.315Z,4.13
2018-06-09T12:36:58.265Z,5.80
2018-06-09T12:39:27.093Z,4.30
2018-06-09T12:41:55.908Z,4.70
2018-06-09T12:44:25.052Z,4.77
2018-06-09T12:46:53.818Z,4.57
2018-06-09T12:49:22.563Z,5.23
2018-06-09T12:51:51.647Z,6.57
2018-06-09T12:54:20.407Z,5.20
2018-06-09T12:56:49.402Z,3.63
2018-06-09T12:59:18.496Z,3.77
2018-06-09T13:01:47.554Z,4.63
2018-06-09T13:04:16.354Z,4.03
2018-06-09T13:06:45.477Z,3.07
2018-06-09T13:09:14.230Z,3.67
2018-06-09T13:11:42.968Z,6.17
2018-06-09T13:14:11.956Z,3.07
2018-06-09T13:16:40.753Z,3.07
2018-06-09T13:19:09.504Z,3.30
2018-06-09T13:21:38.629Z,2.90
2018-06-09T13:24:07.684Z,3.67
2018-06-09T13:26:36.437Z,3.83
2018-06-09T13:29:05.575Z,3.90
2018-06-09T13:31:34.668Z,3.27
2018-06-09T13:34:03.456Z,4.80
2018-06-09T13:36:32.492Z,2.53
2018-06-09T13:39:01.223Z,2.97
2018-06-09T13:41:30.037Z,5.57
2018-06-09T13:43:59.164Z,3.83
2018-06-09T13:46:27.919Z,5.37
2018-06-09T13:48:56.668Z,3.47
2018-06-09T13:51:25.740Z,2.67
2018-06-09T13:53:54.366Z,4.73
2018-06-09T13:56:22.946Z,4.03
2018-06-09T13:58:52.012Z,4.40
2018-06-09T14:01:21.152Z,4.63
2018-06-09T14:03:49.922Z,4.93
2018-06-09T14:06:19.363Z,5.20
2018-06-09T14:08:48.112Z,4.47
2018-06-09T14:11:16.866Z,3.17
2018-06-09T14:13:46.284Z,4.63
2018-06-09T14:16:15.106Z,4.93
2018-06-09T14:18:43.922Z,3.53
2018-06-09T14:21:12.999Z,3.60
2018-06-09T14:23:41.752Z,4.47
2018-06-09T14:26:10.498Z,3.70
2018-06-09T14:28:39.632Z,2.63
2018-06-09T14:31:08.454Z,3.93
2018-06-09T14:33:37.275Z,3.80
2018-06-09T14:36:06.412Z,6.93
2018-06-09T14:38:35.042Z,6.87
2018-06-09T14:41:03.630Z,3.93
2018-06-09T14:43:32.786Z,3.00
2018-06-09T14:46:01.535Z,5.33
2018-06-09T14:48:30.259Z,2.93
2018-06-09T14:50:59.463Z,2.60
2018-06-09T14:53:28.196Z,4.80
2018-06-09T14:55:56.993Z,4.70
2018-06-09T14:58:26.131Z,3.70
2018-06-09T15:00:54.880Z,2.80
2018-06-09T15:03:28.424Z,2.77
2018-06-09T15:05:57.210Z,4.07
2018-06-09T15:08:26.335Z,3.37
2018-06-09T15:10:55.403Z,3.67
2018-06-09T15:13:24.152Z,2.63
2018-06-09T15:15:52.908Z,2.60
2018-06-09T15:18:22.293Z,3.83
2018-06-09T15:20:51.037Z,3.10
2018-06-09T15:23:19.768Z,3.57
2018-06-09T15:25:48.841Z,4.00
2018-06-09T15:28:17.582Z,3.40
2018-06-09T15:30:46.397Z,4.03
2018-06-09T15:33:15.363Z,2.57
2018-06-09T15:35:44.174Z,3.67
2018-06-09T15:38:12.755Z,4.33
2018-06-09T15:40:41.913Z,3.73
2018-06-09T15:43:10.732Z,4.70
2018-06-09T15:45:45.839Z,3.30
2018-06-09T15:48:14.603Z,4.20
2018-06-09T15:50:43.339Z,2.80
2018-06-09T15:53:12.435Z,3.03
2018-06-09T15:55:41.172Z,4.83
2018-06-09T15:58:09.908Z,4.47
2018-06-09T16:00:38.984Z,3.33
2018-06-09T16:03:08.079Z,3.20
2018-06-09T16:05:36.706Z,4.67
2018-06-09T16:08:05.657Z,4.60
2018-06-09T16:10:34.603Z,4.67
2018-06-09T16:13:03.196Z,3.30
2018-06-09T16:15:32.531Z,5.03
2018-06-09T16:18:01.153Z,2.70
2018-06-09T16:20:29.880Z,6.00
2018-06-09T16:22:59.011Z,2.83
2018-06-09T16:25:27.760Z,5.10
2018-06-09T16:27:56.513Z,4.17
2018-06-09T16:30:25.999Z,4.20
2018-06-09T16:32:54.613Z,3.00
2018-06-09T16:35:23.371Z,4.80
2018-06-09T16:37:52.472Z,3.97
2018-06-09T16:40:21.211Z,2.97
2018-06-09T16:42:50.016Z,3.60
2018-06-09T16:45:19.062Z,7.67
2018-06-09T16:47:48.060Z,4.93
2018-06-09T16:50:16.844Z,4.23
2018-06-09T16:52:45.947Z,4.07
2018-06-09T16:55:14.824Z,2.63
2018-06-09T16:57:43.941Z,2.73
2018-06-09T17:00:12.992Z,2.87
2018-06-09T17:02:41.751Z,2.43
2018-06-09T17:05:10.757Z,3.03
2018-06-09T17:07:39.854Z,5.00
2018-06-09T17:10:08.623Z,3.10
2018-06-09T17:12:37.220Z,4.53
2018-06-09T17:15:06.364Z,3.57
2018-06-09T17:17:35.153Z,2.97
2018-06-09T17:20:04.060Z,3.37
2018-06-09T17:22:33.137Z,2.07
2018-06-09T17:25:01.960Z,7.63
2018-06-09T17:27:31.075Z,3.00
2018-06-09T17:30:00.048Z,3.87
2018-06-09T17:32:29.182Z,3.70
2018-06-09T17:34:57.936Z,4.73
2018-06-09T17:37:27.004Z,4.07
2018-06-09T17:39:55.772Z,3.87
2018-06-09T17:42:24.528Z,3.97
2018-06-09T17:44:53.780Z,4.50
2018-06-09T17:47:22.571Z,3.00
2018-06-09T17:49:51.342Z,2.23
2018-06-09T17:52:20.463Z,2.80
2018-06-09T17:54:49.207Z,2.90
2018-06-09T17:57:18.438Z,4.57
2018-06-09T17:59:48.832Z,4.47
2018-06-09T18:02:18.035Z,2.40
2018-06-09T18:04:46.823Z,2.43
2018-06-09T18:07:15.888Z,3.63
2018-06-09T18:09:44.707Z,4.40
2018-06-09T18:12:13.659Z,3.47
2018-06-09T18:14:42.717Z,3.33
2018-06-09T18:17:11.475Z,2.77
2018-06-09T18:19:40.121Z,7.13
2018-06-09T18:22:09.256Z,4.50
2018-06-09T18:24:37.842Z,7.20
2018-06-09T18:27:06.623Z,2.70
2018-06-09T18:29:35.582Z,6.83
2018-06-09T18:32:04.373Z,3.87
2018-06-09T18:34:33.219Z,3.83
2018-06-09T18:37:02.366Z,3.10
2018-06-09T18:39:31.136Z,4.67
2018-06-09T18:41:59.921Z,4.30
2018-06-09T18:44:28.991Z,4.00
2018-06-09T18:46:57.806Z,3.10
2018-06-09T18:49:26.596Z,3.00
2018-06-09T18:51:55.820Z,8.20
2018-06-09T18:54:24.903Z,6.67
2018-06-09T18:56:53.798Z,5.83
2018-06-09T18:59:22.938Z,7.90
2018-06-09T19:01:51.526Z,6.33
2018-06-09T19:04:20.354Z,3.93
2018-06-09T19:06:49.440Z,6.40
2018-06-09T19:09:18.211Z,4.63
2018-06-09T19:11:47.080Z,5.20
2018-06-09T19:14:16.254Z,5.93
2018-06-09T19:16:45.034Z,4.40
2018-06-09T19:19:13.820Z,3.23
2018-06-09T19:21:42.927Z,3.87
2018-06-09T19:24:12.191Z,5.20
2018-06-09T19:26:40.970Z,5.00
2018-06-09T19:29:10.111Z,3.97
2018-06-09T19:31:38.938Z,3.93
2018-06-09T19:34:07.852Z,3.47
2018-06-09T19:36:36.987Z,3.40
2018-06-09T19:39:08.605Z,4.43
2018-06-09T19:41:38.002Z,3.97
2018-06-09T19:44:06.774Z,6.27
2018-06-09T19:46:35.579Z,4.40
2018-06-09T19:49:04.702Z,6.40
2018-06-09T19:51:33.447Z,5.50
2018-06-09T19:54:02.244Z,4.17
2018-06-09T19:56:31.400Z,3.60
2018-06-09T19:59:00.213Z,5.13
2018-06-09T20:01:28.997Z,5.33
2018-06-09T20:03:58.080Z,7.37
2018-06-09T20:06:26.817Z,5.30
2018-06-09T20:08:55.399Z,4.27
2018-06-09T20:11:24.457Z,6.27
2018-06-09T20:13:53.073Z,4.67
2018-06-09T20:16:21.808Z,6.63
2018-06-09T20:18:50.928Z,9.03
2018-06-09T20:21:20.060Z,6.47
2018-06-09T20:23:48.663Z,8.07
2018-06-09T20:26:18.010Z,7.00
2018-06-09T20:28:47.070Z,5.73
2018-06-09T20:31:15.894Z,4.30
2018-06-09T20:33:44.995Z,4.50
2018-06-09T20:36:13.800Z,6.53
2018-06-09T20:38:42.731Z,6.67
2018-06-09T20:41:11.977Z,4.27
2018-06-09T20:43:40.744Z,5.27
2018-06-09T20:46:09.475Z,8.77
2018-06-09T20:48:38.650Z,5.73
2018-06-09T20:51:07.296Z,4.80
2018-06-09T20:53:36.105Z,5.30
2018-06-09T20:56:05.179Z,5.53
2018-06-09T20:58:39.464Z,6.53
2018-06-09T21:01:08.843Z,7.30
2018-06-09T21:03:37.608Z,6.17
2018-06-09T21:06:06.644Z,9.30
2018-06-09T21:08:35.675Z,4.57
2018-06-09T21:11:04.287Z,4.53
2018-06-09T21:13:34.014Z,3.60
2018-06-09T21:16:03.123Z,3.40
2018-06-09T21:18:31.891Z,5.33
2018-06-09T21:21:00.647Z,5.43
2018-06-09T21:23:29.590Z,4.60
2018-06-09T21:25:58.376Z,6.07
2018-06-09T21:28:28.020Z,7.80
2018-06-09T21:31:02.824Z,4.90
2018-06-09T21:33:54.241Z,10.30
2018-06-09T21:36:29.699Z,4.93
2018-06-09T21:38:59.370Z,5.33
2018-06-09T21:41:35.212Z,4.07
2018-06-09T21:44:09.593Z,6.83
2018-06-09T21:46:48.096Z,8.40
2018-06-09T21:49:17.610Z,4.63
2018-06-09T21:51:46.372Z,7.03
2018-06-09T21:54:15.419Z,7.87
2018-06-09T21:56:44.256Z,5.93
2018-06-09T21:59:13.333Z,6.53
2018-06-09T22:01:42.520Z,8.27
2018-06-09T22:04:11.265Z,5.53
2018-06-09T22:06:40.027Z,6.53
2018-06-09T22:09:09.243Z,5.40
2018-06-09T22:11:38.302Z,6.20
2018-06-09T22:14:07.470Z,5.43
2018-06-09T22:16:36.548Z,5.40
2018-06-09T22:19:05.365Z,6.47
2018-06-09T22:21:34.155Z,5.30
2018-06-09T22:24:03.318Z,3.70
2018-06-09T22:26:32.067Z,4.23
2018-06-09T22:29:00.790Z,5.17
2018-06-09T22:31:29.890Z,5.90
2018-06-09T22:33:58.509Z,3.70
2018-06-09T22:36:27.255Z,6.53
2018-06-09T22:38:56.361Z,5.30
2018-06-09T22:41:25.091Z,6.73
2018-06-09T22:43:53.664Z,4.53
2018-06-09T22:46:22.837Z,4.87
2018-06-09T22:48:51.583Z,6.77
2018-06-09T22:51:27.279Z,6.37
2018-06-09T22:53:55.882Z,6.50
2018-06-09T22:56:24.699Z,6.73
2018-06-09T22:58:53.641Z,6.60
2018-06-09T23:01:22.374Z,7.10
2018-06-09T23:03:51.384Z,8.17
2018-06-09T23:06:20.419Z,5.80
2018-06-09T23:08:49.050Z,4.17
2018-06-09T23:11:17.957Z,6.80
2018-06-09T23:13:47.122Z,5.57
2018-06-09T23:16:15.868Z,5.40
2018-06-09T23:18:44.592Z,7.53
2018-06-09T23:21:13.771Z,7.80
2018-06-09T23:23:42.521Z,7.53
2018-06-09T23:26:11.264Z,6.47
2018-06-09T23:28:40.610Z,4.87
2018-06-09T23:31:09.650Z,5.63
2018-06-09T23:33:38.598Z,4.10
2018-06-09T23:36:07.742Z,5.37
2018-06-09T23:38:36.475Z,7.03
2018-06-09T23:41:05.121Z,6.40
2018-06-09T23:43:34.161Z,3.80
2018-06-09T23:46:07.364Z,5.03
2018-06-09T23:48:36.494Z,5.83
2018-06-09T23:51:05.227Z,4.57
2018-06-09T23:53:33.796Z,5.97
2018-06-09T23:56:03.067Z,5.43
2018-06-09T23:58:31.709Z,4.67
